This is the latest recevied weather packets stored in our database for station/object KB4JAC-13. If no packets are shown the sender has not sent any weather packets the latest 10 day(s).
| Time | Temp. | Humidity | Pressure | Rain* | Wind** | Luminosity | Snow |
|---|---|---|---|---|---|---|---|
| 1788209780 | 36.67° C | 43% | 993.3 hPa | 0 mm | - | - | - |
| 1788209180 | 35.56° C | 42% | 993.3 hPa | 0 mm | - | - | - |
| 1788208579 | 36.11° C | 41% | 993.5 hPa | 0 mm | - | - | - |
| 1788207978 | 35.56° C | 43% | 993.6 hPa | 0 mm | - | - | - |
| 1788207377 | 36.11° C | 45% | 993.8 hPa | 0 mm | - | - | - |
| 1788206778 | 36.67° C | 41% | 993.8 hPa | 0 mm | - | - | - |
| 1788206176 | 36.67° C | 44% | 994.2 hPa | 0 mm | - | - | - |
| 1788205575 | 36.11° C | 47% | 994.2 hPa | 0 mm | - | - | - |
| 1788204975 | 34.44° C | 49% | 994.3 hPa | 0 mm | - | - | - |
| 1788204374 | 33.89° C | 54% | 994.2 hPa | 0 mm | - | - | - |
| 1788203773 | 35° C | 50% | 994.5 hPa | 0 mm | - | - | - |
| 1788203174 | 33.89° C | 51% | 994.5 hPa | 0 mm | - | - | - |
| 1788202572 | 35.56° C | 52% | 994.4 hPa | 0 mm | - | - | - |
| 1788201973 | 36.11° C | 49% | 994.8 hPa | 0 mm | - | - | - |
| 1788201372 | 35° C | 49% | 994.8 hPa | 0 mm | - | - | - |
| 1788200771 | 35.56° C | 50% | 994.8 hPa | 0 mm | - | - | - |
| 1788200170 | 34.44° C | 55% | 995 hPa | 0 mm | - | - | - |
| 1788199575 | 34.44° C | 53% | 995.2 hPa | 0 mm | - | - | - |
| 1788198969 | 33.33° C | 58% | 995.1 hPa | 0 mm | - | - | - |
| 1788198368 | 31.11° C | 66% | 995.3 hPa | 0 mm | - | - | - |
| 1788197767 | 33.89° C | 60% | 995.4 hPa | 0 mm | - | - | - |
| 1788197168 | 33.89° C | 56% | 995.3 hPa | 0 mm | - | - | - |
| 1788196566 | 33.89° C | 58% | 995.4 hPa | 0 mm | - | - | - |
| 1788195966 | 33.33° C | 58% | 995.5 hPa | 0 mm | - | - | - |
| 1788195365 | 34.44° C | 57% | 995.7 hPa | 0 mm | - | - | - |
* Rain since midnight (hover to see other rain measurements)
** Current wind speed in m/s (hover to see current wind gust speed)